Fecha, hora, temperatura, viento dirección y velocidad, humedad y presión.

  • 16-07-2019 23:00:00 | 16.10°C | Nordeste |39.00 km/h | 89.00% | 990.10 hPa
  • 16-07-2019 22:00:00 | 16.30°C | Nordeste |41.00 km/h | 89.00% | 989.70 hPa
  • 16-07-2019 21:00:00 | 16.70°C | Nordeste |45.00 km/h | 87.00% | 989.20 hPa
  • 16-07-2019 20:00:00 | 17.30°C | Nordeste |47.00 km/h | 85.00% | 989.20 hPa
  • 16-07-2019 19:00:00 | 17.70°C | Nordeste |45.00 km/h | 83.00% | 988.80 hPa
  • 16-07-2019 18:00:00 | 18.00°C | Nordeste |42.00 km/h | 82.00% | 989.20 hPa
  • 16-07-2019 17:00:00 | 18.10°C | Nordeste |41.00 km/h | 82.00% | 989.50 hPa
  • 16-07-2019 16:00:00 | 17.60°C | Nordeste |44.00 km/h | 84.00% | 989.20 hPa
  • 16-07-2019 15:00:00 | 17.20°C | Norte |42.00 km/h | 84.00% | 989.50 hPa
  • 16-07-2019 14:00:00 | 18.80°C | Nordeste |35.00 km/h | 79.00% | 989.70 hPa
  • 16-07-2019 13:00:00 | 18.20°C | Nordeste |37.00 km/h | 82.00% | 989.80 hPa
  • 16-07-2019 12:00:00 | 16.80°C | Nordeste |40.00 km/h | 87.00% | 989.90 hPa
  • 16-07-2019 11:00:00 | 16.10°C | Nordeste |43.00 km/h | 90.00% | 989.80 hPa
  • 16-07-2019 10:00:00 | 16.00°C | Nordeste |40.00 km/h | 90.00% | 990.20 hPa
  • 16-07-2019 09:00:00 | 15.60°C | Nordeste |39.00 km/h | 92.00% | 990.00 hPa
  • 16-07-2019 08:00:00 | 15.30°C | Nordeste |35.00 km/h | 92.00% | 989.90 hPa
  • 16-07-2019 07:00:00 | 15.30°C | Norte |30.00 km/h | 93.00% | 990.20 hPa
  • 16-07-2019 06:00:00 | 15.30°C | Norte |34.00 km/h | 92.00% | 990.00 hPa
  • 16-07-2019 05:00:00 | 15.30°C | Nordeste |39.00 km/h | 92.00% | 990.10 hPa
  • 16-07-2019 04:00:00 | 15.30°C | Nordeste |28.00 km/h | 91.00% | 990.50 hPa
  • 16-07-2019 02:00:00 | 15.50°C | Nordeste |36.00 km/h | 90.00% | 991.10 hPa
  • 16-07-2019 01:00:00 | 15.30°C | Nordeste |40.00 km/h | 91.00% | 991.10 hPa
  • 16-07-2019 00:00:00 | 15.60°C | Nordeste |47.00 km/h | 90.00% | 990.50 hPa
  • 15-07-2019 23:00:00 | 15.80°C | Nordeste |47.00 km/h | 91.00% | 990.10 hPa
    • diseño web asturias Información sobre el estado de las mareas, altura de la marejada, temperatura del agua y otros datos de Gijón en Asturias.

      Surf Gijón